createdAt,value
2018-04-11T00:00:51.397Z,22.17
2018-04-11T00:01:54.606Z,22.17
2018-04-11T00:02:57.823Z,21.37
2018-04-11T00:04:01.061Z,22.27
2018-04-11T00:05:04.290Z,22.42
2018-04-11T00:06:07.517Z,22.92
2018-04-11T00:07:10.765Z,22.73
2018-04-11T00:08:13.988Z,23.00
2018-04-11T00:09:17.213Z,22.87
2018-04-11T00:10:20.605Z,23.08
2018-04-11T00:11:23.800Z,23.00
2018-04-11T00:12:27.019Z,21.90
2018-04-11T00:13:30.275Z,22.37
2018-04-11T00:14:33.539Z,22.70
2018-04-11T00:15:36.765Z,22.20
2018-04-11T00:16:39.977Z,21.77
2018-04-11T00:17:43.247Z,21.17
2018-04-11T00:18:46.464Z,22.87
2018-04-11T00:19:49.791Z,22.75
2018-04-11T00:20:53.010Z,22.95
2018-04-11T00:21:56.249Z,23.77
2018-04-11T00:23:00.244Z,24.05
2018-04-11T00:24:04.239Z,24.08
2018-04-11T00:25:07.503Z,24.42
2018-04-11T00:26:10.749Z,24.33
2018-04-11T00:27:13.982Z,24.15
2018-04-11T00:28:17.208Z,23.98
2018-04-11T00:29:20.450Z,25.73
2018-04-11T00:30:23.686Z,23.15
2018-04-11T00:31:26.915Z,24.48
2018-04-11T00:32:30.908Z,24.95
2018-04-11T00:33:34.136Z,23.87
2018-04-11T00:34:37.347Z,24.55
2018-04-11T00:35:40.585Z,23.95
2018-04-11T00:36:44.572Z,24.30
2018-04-11T00:37:48.563Z,25.55
2018-04-11T00:38:52.560Z,25.02
2018-04-11T00:39:55.791Z,25.92
2018-04-11T00:40:59.010Z,25.50
2018-04-11T00:42:02.228Z,27.20
2018-04-11T00:43:06.225Z,27.70
2018-04-11T00:44:10.245Z,27.52
2018-04-11T00:45:13.485Z,26.65
2018-04-11T00:46:16.710Z,26.37
2018-04-11T00:47:19.940Z,27.45
2018-04-11T00:48:23.176Z,26.90
2018-04-11T00:49:27.259Z,27.73
2018-04-11T00:50:31.235Z,26.55
2018-04-11T00:51:34.495Z,26.73
2018-04-11T00:52:37.722Z,26.75
2018-04-11T00:53:41.707Z,25.50
2018-04-11T00:54:45.078Z,28.55
2018-04-11T00:55:48.318Z,26.40
2018-04-11T00:56:51.550Z,28.35
2018-04-11T00:57:54.798Z,29.08
2018-04-11T00:58:58.017Z,28.87
2018-04-11T01:00:02.535Z,27.73
2018-04-11T01:01:05.758Z,28.92
2018-04-11T01:02:09.005Z,27.00
2018-04-11T01:03:12.224Z,28.95
2018-04-11T01:04:15.460Z,31.25
2018-04-11T01:05:18.681Z,26.45
2018-04-11T01:06:21.903Z,30.55
2018-04-11T01:07:25.145Z,26.30
2018-04-11T01:08:28.358Z,29.20
2018-04-11T01:09:31.590Z,28.58
2018-04-11T01:10:35.585Z,28.08
2018-04-11T01:11:38.822Z,28.95
2018-04-11T01:12:42.033Z,29.20
2018-04-11T01:13:45.273Z,28.15
2018-04-11T01:14:48.491Z,27.25
2018-04-11T01:15:51.750Z,27.13
2018-04-11T01:16:54.977Z,29.55
2018-04-11T01:17:58.189Z,26.65
2018-04-11T01:19:01.447Z,26.02
2018-04-11T01:20:04.629Z,27.70
2018-04-11T01:21:07.868Z,29.12
2018-04-11T01:22:11.092Z,28.87
2018-04-11T01:23:14.315Z,26.83
2018-04-11T01:24:17.558Z,26.23
2018-04-11T01:25:20.780Z,27.87
2018-04-11T01:26:24.012Z,29.08
2018-04-11T01:27:27.249Z,25.05
2018-04-11T01:28:30.519Z,25.92
2018-04-11T01:29:33.746Z,26.23
2018-04-11T01:30:36.991Z,26.17
2018-04-11T01:31:40.235Z,24.45
2018-04-11T01:32:43.448Z,23.80
2018-04-11T01:33:46.708Z,25.00
2018-04-11T01:34:50.699Z,23.12
2018-04-11T01:35:53.918Z,24.58
2018-04-11T01:36:57.137Z,23.62
2018-04-11T01:38:00.384Z,25.40
2018-04-11T01:39:03.598Z,21.95
2018-04-11T01:40:06.806Z,23.10
2018-04-11T01:41:10.031Z,22.00
2018-04-11T01:42:13.254Z,23.40
2018-04-11T01:43:16.507Z,23.10
2018-04-11T01:44:19.726Z,22.02
2018-04-11T01:45:22.960Z,22.33
2018-04-11T01:46:26.185Z,21.50
2018-04-11T01:47:29.399Z,22.40
2018-04-11T01:48:33.425Z,22.90
2018-04-11T01:49:37.408Z,20.92
2018-04-11T01:50:48.910Z,22.27
2018-04-11T01:51:52.137Z,19.77
2018-04-11T01:52:55.456Z,21.77
2018-04-11T01:53:59.442Z,20.12
2018-04-11T01:55:02.655Z,20.70
2018-04-11T01:56:05.871Z,21.08
2018-04-11T01:57:09.109Z,20.17
2018-04-11T01:58:13.158Z,19.90
2018-04-11T01:59:17.102Z,20.05
2018-04-11T02:00:21.160Z,20.15
2018-04-11T02:01:24.402Z,19.37
2018-04-11T02:02:27.591Z,20.60
2018-04-11T02:03:30.875Z,20.45
2018-04-11T02:04:34.091Z,18.10
2018-04-11T02:05:37.311Z,20.17
2018-04-11T02:06:40.540Z,20.37
2018-04-11T02:07:43.783Z,19.25
2018-04-11T02:08:47.768Z,20.02
2018-04-11T02:09:51.754Z,18.92
2018-04-11T02:10:54.983Z,19.95
2018-04-11T02:11:58.976Z,18.83
2018-04-11T02:13:02.260Z,18.90
2018-04-11T02:14:06.226Z,18.50
2018-04-11T02:15:09.456Z,17.87
2018-04-11T02:16:12.694Z,20.90
2018-04-11T02:17:15.920Z,19.67
2018-04-11T02:18:19.131Z,19.62
2018-04-11T02:19:22.350Z,19.62
2018-04-11T02:20:26.364Z,18.60
2018-04-11T02:21:30.343Z,19.50
2018-04-11T02:22:33.570Z,19.30
2018-04-11T02:23:36.798Z,19.85
2018-04-11T02:24:40.035Z,20.62
2018-04-11T02:25:43.251Z,19.62
2018-04-11T02:26:46.482Z,20.75
2018-04-11T02:27:51.293Z,20.30
2018-04-11T02:28:55.311Z,19.45
2018-04-11T02:29:58.539Z,20.35
2018-04-11T02:31:01.761Z,20.35
2018-04-11T02:32:05.813Z,17.42
2018-04-11T02:33:09.834Z,20.05
2018-04-11T02:34:13.096Z,20.55
2018-04-11T02:35:16.283Z,19.70
2018-04-11T02:36:19.537Z,19.02
2018-04-11T02:37:22.772Z,18.92
2018-04-11T02:38:26.105Z,20.33
2018-04-11T02:39:29.327Z,19.62
2018-04-11T02:40:32.553Z,19.83
2018-04-11T02:41:36.540Z,20.15
2018-04-11T02:42:40.522Z,20.83
2018-04-11T02:43:43.760Z,20.17
2018-04-11T02:44:47.074Z,19.80
2018-04-11T02:45:50.244Z,19.48
2018-04-11T02:46:53.453Z,19.80
2018-04-11T02:47:56.750Z,19.85
2018-04-11T02:49:00.072Z,20.37
2018-04-11T02:50:03.292Z,20.15
2018-04-11T02:51:06.516Z,18.10
2018-04-11T02:52:10.525Z,17.92
2018-04-11T02:53:14.551Z,17.52
2018-04-11T02:54:17.781Z,17.45
2018-04-11T02:55:21.778Z,18.73
2018-04-11T02:56:25.004Z,14.32
2018-04-11T02:57:28.242Z,15.65
2018-04-11T02:58:31.470Z,16.62
2018-04-11T02:59:34.703Z,17.98
2018-04-11T03:00:37.923Z,16.67
2018-04-11T03:01:41.903Z,16.08
2018-04-11T03:02:45.164Z,14.50
2018-04-11T03:03:48.367Z,16.02
2018-04-11T03:04:51.583Z,17.73
2018-04-11T03:05:54.811Z,18.02
2018-04-11T03:06:58.034Z,17.67
2018-04-11T03:08:02.046Z,17.40
2018-04-11T03:09:06.098Z,15.95
2018-04-11T03:10:09.324Z,17.05
2018-04-11T03:11:12.569Z,16.92
2018-04-11T03:12:15.792Z,16.80
2018-04-11T03:13:19.018Z,16.83
2018-04-11T03:14:22.229Z,12.80
2018-04-11T03:15:25.458Z,14.60
2018-04-11T03:16:28.713Z,16.08
2018-04-11T03:17:32.722Z,14.82
2018-04-11T03:18:36.700Z,14.55
2018-04-11T03:19:40.725Z,13.93
2018-04-11T03:20:43.947Z,12.40
2018-04-11T03:21:47.243Z,12.15
2018-04-11T03:22:50.472Z,13.13
2018-04-11T03:23:53.706Z,12.40
2018-04-11T03:24:56.937Z,12.55
2018-04-11T03:26:00.186Z,11.40
2018-04-11T03:27:03.409Z,12.32
2018-04-11T03:28:07.409Z,12.25
2018-04-11T03:29:10.657Z,11.40
2018-04-11T03:30:13.873Z,12.95
2018-04-11T03:31:17.088Z,13.07
2018-04-11T03:32:20.315Z,11.63
2018-04-11T03:33:24.321Z,12.18
2018-04-11T03:34:28.321Z,14.20
2018-04-11T03:35:32.318Z,11.48
2018-04-11T03:36:36.306Z,11.82
2018-04-11T03:37:39.536Z,11.98
2018-04-11T03:38:42.776Z,11.98
2018-04-11T03:39:46.012Z,11.20
2018-04-11T03:40:49.259Z,12.15
2018-04-11T03:41:53.126Z,12.18
2018-04-11T03:42:57.894Z,11.32
2018-04-11T03:44:01.111Z,12.23
2018-04-11T03:45:04.344Z,11.52
2018-04-11T03:46:08.343Z,11.50
2018-04-11T03:47:11.637Z,11.07
2018-04-11T03:48:14.861Z,11.00
2018-04-11T03:49:18.096Z,11.88
2018-04-11T03:50:22.088Z,11.55
2018-04-11T03:51:26.073Z,11.65
2018-04-11T03:52:29.302Z,11.15
2018-04-11T03:53:32.579Z,11.05
2018-04-11T03:54:35.847Z,11.85
2018-04-11T03:55:39.091Z,10.68
2018-04-11T03:56:42.283Z,11.82
2018-04-11T03:57:45.524Z,11.40
2018-04-11T03:58:48.746Z,11.65
2018-04-11T03:59:52.089Z,12.32
2018-04-11T04:00:55.289Z,12.63
2018-04-11T04:01:58.529Z,12.65
2018-04-11T04:03:02.550Z,11.60
2018-04-11T04:04:05.805Z,12.25
2018-04-11T04:05:09.810Z,12.32
2018-04-11T04:06:13.802Z,11.75
2018-04-11T04:07:17.813Z,12.63
2018-04-11T04:08:21.807Z,12.93
2018-04-11T04:09:25.783Z,12.45
2018-04-11T04:10:29.012Z,12.73
2018-04-11T04:11:32.232Z,12.73
2018-04-11T04:12:35.471Z,12.70
2018-04-11T04:13:51.205Z,11.50
2018-04-11T04:15:06.420Z,12.35
2018-04-11T04:16:21.621Z,12.75
2018-04-11T04:17:36.758Z,12.18
2018-04-11T04:18:51.955Z,12.82
2018-04-11T04:20:02.874Z,13.40
2018-04-11T04:21:06.114Z,14.02
2018-04-11T04:22:10.132Z,12.43
2018-04-11T04:23:14.120Z,12.35
2018-04-11T04:24:17.346Z,12.90
2018-04-11T04:25:20.578Z,12.63
2018-04-11T04:26:23.801Z,12.70
2018-04-11T04:27:27.017Z,12.52
2018-04-11T04:28:30.278Z,13.35
2018-04-11T04:29:33.501Z,13.02
2018-04-11T04:30:36.715Z,12.65
2018-04-11T04:31:40.718Z,13.73
2018-04-11T04:32:44.707Z,13.43
2018-04-11T04:35:00.202Z,12.48
2018-04-11T04:36:03.425Z,12.20
2018-04-11T04:37:06.677Z,12.68
2018-04-11T04:38:09.916Z,12.85
2018-04-11T04:39:13.135Z,12.40
2018-04-11T04:40:16.378Z,12.68
2018-04-11T04:41:21.131Z,13.52
2018-04-11T04:42:25.115Z,12.95
2018-04-11T04:43:29.186Z,13.38
2018-04-11T04:44:32.427Z,12.40
2018-04-11T04:45:35.657Z,12.80
2018-04-11T04:46:38.903Z,13.80
2018-04-11T04:47:42.127Z,12.45
2018-04-11T04:48:45.421Z,13.35
2018-04-11T04:49:48.646Z,13.52
2018-04-11T04:50:51.883Z,13.20
2018-04-11T04:51:55.126Z,12.13
2018-04-11T04:52:58.362Z,12.85
2018-04-11T04:54:01.605Z,12.40
2018-04-11T04:55:04.829Z,13.18
2018-04-11T04:56:08.817Z,12.32
2018-04-11T04:57:12.139Z,12.07
2018-04-11T04:58:15.411Z,14.05
2018-04-11T04:59:18.723Z,11.75
2018-04-11T05:00:22.096Z,13.30
2018-04-11T05:01:25.332Z,13.32
2018-04-11T05:02:28.590Z,13.20
2018-04-11T05:03:31.802Z,13.02
2018-04-11T05:04:35.144Z,12.43
2018-04-11T05:05:38.363Z,14.38
2018-04-11T05:06:41.681Z,13.30
2018-04-11T05:07:45.029Z,13.38
2018-04-11T05:08:48.232Z,15.30
2018-04-11T05:09:51.498Z,16.30
2018-04-11T05:10:54.686Z,17.25
2018-04-11T05:11:58.680Z,16.75
2018-04-11T05:13:01.906Z,16.33
2018-04-11T05:14:05.873Z,17.40
2018-04-11T05:15:09.135Z,18.37
2018-04-11T05:16:12.362Z,17.67
2018-04-11T05:17:16.388Z,18.83
2018-04-11T05:18:19.612Z,18.27
2018-04-11T05:19:22.844Z,19.40
2018-04-11T05:20:26.850Z,19.12
2018-04-11T05:21:30.088Z,19.48
2018-04-11T05:22:33.313Z,18.67
2018-04-11T05:23:36.528Z,18.23
2018-04-11T05:24:39.756Z,19.55
2018-04-11T05:25:43.728Z,18.85
2018-04-11T05:26:46.958Z,20.02
2018-04-11T05:27:50.179Z,18.65
2018-04-11T05:28:53.457Z,20.67
2018-04-11T05:29:56.724Z,21.30
2018-04-11T05:30:59.978Z,20.05
2018-04-11T05:32:04.001Z,20.73
2018-04-11T05:33:07.201Z,20.65
2018-04-11T05:34:10.431Z,19.87
2018-04-11T05:35:14.420Z,21.48
2018-04-11T05:36:17.637Z,19.45
2018-04-11T05:37:20.857Z,22.23
2018-04-11T05:38:24.194Z,19.27
2018-04-11T05:39:28.221Z,19.50
2018-04-11T05:40:31.467Z,18.85
2018-04-11T05:41:34.679Z,20.67
2018-04-11T05:42:37.930Z,19.50
2018-04-11T05:43:41.937Z,19.23
2018-04-11T05:44:45.931Z,19.95
2018-04-11T05:45:49.910Z,20.17
2018-04-11T05:46:53.134Z,19.60
2018-04-11T05:47:56.425Z,20.40
2018-04-11T05:48:59.595Z,19.90
2018-04-11T05:50:03.572Z,19.48
2018-04-11T05:51:07.562Z,20.40
2018-04-11T05:52:10.793Z,19.35
2018-04-11T05:53:13.997Z,19.85
2018-04-11T05:54:17.227Z,19.95
2018-04-11T05:55:21.237Z,17.80
2018-04-11T05:56:25.216Z,19.12
2018-04-11T05:57:28.505Z,19.50
2018-04-11T05:58:31.752Z,18.27
2018-04-11T05:59:35.007Z,19.00
2018-04-11T06:00:38.274Z,18.85
2018-04-11T06:01:41.510Z,19.62
2018-04-11T06:02:44.732Z,19.23
2018-04-11T06:03:48.773Z,18.15
2018-04-11T06:04:51.987Z,18.75
2018-04-11T06:05:55.300Z,17.95
2018-04-11T06:06:58.485Z,18.15
2018-04-11T06:08:02.497Z,19.00
2018-04-11T06:09:07.303Z,18.60
2018-04-11T06:10:11.293Z,17.70
2018-04-11T06:11:15.302Z,16.90
2018-04-11T06:12:19.314Z,18.35
2018-04-11T06:13:23.291Z,18.73
2018-04-11T06:14:26.524Z,17.87
2018-04-11T06:15:29.744Z,17.50
2018-04-11T06:16:32.972Z,18.12
2018-04-11T06:17:36.242Z,19.10
2018-04-11T06:18:40.214Z,17.48
2018-04-11T06:19:43.456Z,16.00
2018-04-11T06:20:46.677Z,16.10
2018-04-11T06:21:49.899Z,14.63
2018-04-11T06:22:53.255Z,16.05
2018-04-11T06:23:56.426Z,14.93
2018-04-11T06:24:59.627Z,15.90
2018-04-11T06:26:03.671Z,13.05
2018-04-11T06:27:06.893Z,13.40
2018-04-11T06:28:10.185Z,13.50
2018-04-11T06:29:13.358Z,13.80
2018-04-11T06:30:16.580Z,14.98
2018-04-11T06:31:19.936Z,14.48
2018-04-11T06:32:23.134Z,13.98
2018-04-11T06:33:27.127Z,15.00
2018-04-11T06:34:30.359Z,14.85
2018-04-11T06:35:33.570Z,14.77
2018-04-11T06:36:36.807Z,15.60
2018-04-11T06:37:40.030Z,15.57
2018-04-11T06:38:43.244Z,15.30
2018-04-11T06:39:47.261Z,15.20
2018-04-11T06:40:50.912Z,15.95
2018-04-11T06:41:54.144Z,15.27
2018-04-11T06:42:58.159Z,14.23
2018-04-11T06:44:01.399Z,15.20
2018-04-11T06:45:05.418Z,14.23
2018-04-11T06:46:09.406Z,16.92
2018-04-11T06:47:13.386Z,15.27
2018-04-11T06:48:16.622Z,14.45
2018-04-11T06:49:19.843Z,12.45
2018-04-11T06:50:23.111Z,11.77
2018-04-11T06:51:26.305Z,12.20
2018-04-11T06:52:29.515Z,11.20
2018-04-11T06:53:33.501Z,10.50
2018-04-11T06:54:36.810Z,9.65
2018-04-11T06:55:40.824Z,9.60
2018-04-11T06:56:44.807Z,9.13
2018-04-11T06:57:48.794Z,8.70
2018-04-11T06:58:52.010Z,9.93
2018-04-11T06:59:55.219Z,9.10
2018-04-11T07:00:58.432Z,10.80
2018-04-11T07:02:01.760Z,11.05
2018-04-11T07:03:04.994Z,10.07
2018-04-11T07:04:08.215Z,9.93
2018-04-11T07:05:12.203Z,9.38
2018-04-11T07:06:15.443Z,9.57
2018-04-11T07:07:18.700Z,9.75
2018-04-11T07:08:22.675Z,10.88
2018-04-11T07:09:25.883Z,9.90
2018-04-11T07:10:29.122Z,9.68
2018-04-11T07:11:33.115Z,9.75
2018-04-11T07:12:36.323Z,9.77
2018-04-11T07:13:40.309Z,8.80
2018-04-11T07:14:44.326Z,10.27
2018-04-11T07:15:48.311Z,9.02
2018-04-11T07:16:52.391Z,9.82
2018-04-11T07:17:55.587Z,10.27
2018-04-11T07:18:58.810Z,10.40
2018-04-11T07:20:02.036Z,9.00
2018-04-11T07:21:05.259Z,9.32
2018-04-11T07:22:08.484Z,8.80
2018-04-11T07:23:11.736Z,9.95
2018-04-11T07:24:14.955Z,9.13
2018-04-11T07:25:18.199Z,10.50
2018-04-11T07:26:21.435Z,7.85
2018-04-11T07:27:24.675Z,9.40
2018-04-11T07:28:27.886Z,8.90
2018-04-11T07:29:31.115Z,9.80
2018-04-11T07:30:35.084Z,8.88
2018-04-11T07:31:38.325Z,9.80
2018-04-11T07:32:41.550Z,9.80
2018-04-11T07:33:44.819Z,8.18
2018-04-11T07:34:48.046Z,8.68
2018-04-11T07:35:51.268Z,8.52
2018-04-11T07:36:54.493Z,7.35
2018-04-11T07:37:57.742Z,7.60
2018-04-11T07:39:00.994Z,8.15
2018-04-11T07:40:05.018Z,7.87
2018-04-11T07:41:08.994Z,7.10
2018-04-11T07:42:13.027Z,7.10
2018-04-11T07:43:16.267Z,6.93
2018-04-11T07:44:19.498Z,8.30
2018-04-11T07:45:22.742Z,8.02
2018-04-11T07:46:26.738Z,9.40
2018-04-11T07:47:31.109Z,8.43
2018-04-11T07:48:34.305Z,8.18
2018-04-11T07:49:37.628Z,8.13
2018-04-11T07:50:40.835Z,8.95
2018-04-11T07:51:44.065Z,9.30
2018-04-11T07:52:48.047Z,9.43
2018-04-11T07:53:51.264Z,9.18
2018-04-11T07:54:55.258Z,9.20
2018-04-11T07:55:59.250Z,8.68
2018-04-11T07:57:02.486Z,8.75
2018-04-11T07:58:05.717Z,8.15
2018-04-11T07:59:08.938Z,7.20
2018-04-11T08:00:12.143Z,8.10
2018-04-11T08:01:15.358Z,7.60
2018-04-11T08:02:18.607Z,9.48
2018-04-11T08:03:21.854Z,8.00
2018-04-11T08:04:25.023Z,8.00
2018-04-11T08:05:29.092Z,7.05
2018-04-11T08:06:32.312Z,6.68
2018-04-11T08:07:36.303Z,6.85
2018-04-11T08:08:40.283Z,5.97
2018-04-11T08:09:43.497Z,6.25
2018-04-11T08:10:47.500Z,7.45
2018-04-11T08:11:51.473Z,8.30
2018-04-11T08:12:55.562Z,8.35
2018-04-11T08:13:58.742Z,9.05
2018-04-11T08:15:01.948Z,8.98
2018-04-11T08:16:05.977Z,10.55
2018-04-11T08:17:09.195Z,8.75
2018-04-11T08:18:12.430Z,10.38
2018-04-11T08:19:15.664Z,10.27
2018-04-11T08:20:18.881Z,11.30
2018-04-11T08:21:22.914Z,10.85
2018-04-11T08:22:26.186Z,9.98
2018-04-11T08:23:29.695Z,10.65
2018-04-11T08:24:32.919Z,10.77
2018-04-11T08:25:36.135Z,10.13
2018-04-11T08:26:39.475Z,9.55
2018-04-11T08:27:42.676Z,9.98
2018-04-11T08:28:46.679Z,10.93
2018-04-11T08:29:50.730Z,10.25
2018-04-11T08:30:54.682Z,11.52
2018-04-11T08:31:58.780Z,11.20
2018-04-11T08:33:01.975Z,9.73
2018-04-11T08:34:05.970Z,9.75
2018-04-11T08:35:09.194Z,10.05
2018-04-11T08:36:12.428Z,9.50
2018-04-11T08:37:16.406Z,9.63
2018-04-11T08:38:19.639Z,10.05
2018-04-11T08:39:23.638Z,9.00
2018-04-11T08:40:27.618Z,8.73
2018-04-11T08:41:30.827Z,10.10
2018-04-11T08:42:34.168Z,9.10
2018-04-11T08:43:37.370Z,9.40
2018-04-11T08:44:42.098Z,9.57
2018-04-11T08:45:46.068Z,8.25
2018-04-11T08:46:49.291Z,8.27
2018-04-11T08:47:52.534Z,8.25
2018-04-11T08:48:55.733Z,8.98
2018-04-11T08:50:00.469Z,8.27
2018-04-11T08:51:04.543Z,8.07
2018-04-11T08:52:07.776Z,8.73
2018-04-11T08:53:10.978Z,8.88
2018-04-11T08:54:14.195Z,8.20
2018-04-11T08:55:18.199Z,8.00
2018-04-11T08:56:21.515Z,8.82
2018-04-11T08:57:25.488Z,8.95
2018-04-11T08:58:29.461Z,9.00
2018-04-11T08:59:32.683Z,8.95
2018-04-11T09:00:36.722Z,8.18
2018-04-11T09:01:39.921Z,9.23
2018-04-11T09:02:43.147Z,8.52
2018-04-11T09:03:46.388Z,7.72
2018-04-11T09:04:49.597Z,8.07
2018-04-11T09:05:53.580Z,6.95
2018-04-11T09:06:56.815Z,6.57
2018-04-11T09:08:00.019Z,7.65
2018-04-11T09:09:03.278Z,7.50
2018-04-11T09:10:07.326Z,6.85
2018-04-11T09:11:10.513Z,6.20
2018-04-11T09:12:13.835Z,6.37
2018-04-11T09:13:17.816Z,6.55
2018-04-11T09:14:21.843Z,5.65
2018-04-11T09:15:25.899Z,6.40
2018-04-11T09:16:29.126Z,6.35
2018-04-11T09:17:32.384Z,6.55
2018-04-11T09:18:35.592Z,8.10
2018-04-11T09:19:39.576Z,6.97
2018-04-11T09:20:42.836Z,6.40
2018-04-11T09:21:46.136Z,6.05
2018-04-11T09:22:50.863Z,6.00
2018-04-11T09:23:54.087Z,5.55
2018-04-11T09:24:57.343Z,6.45
2018-04-11T09:26:00.560Z,6.80
2018-04-11T09:27:03.790Z,5.97
2018-04-11T09:28:07.015Z,7.00
2018-04-11T09:29:10.240Z,6.32
2018-04-11T09:30:13.458Z,6.70
2018-04-11T09:31:16.693Z,6.85
2018-04-11T09:32:19.903Z,6.40
2018-04-11T09:33:23.174Z,6.10
2018-04-11T09:34:26.379Z,7.10
2018-04-11T09:35:30.363Z,7.20
2018-04-11T09:36:33.580Z,6.45
2018-04-11T09:37:36.886Z,6.87
2018-04-11T09:38:40.126Z,6.28
2018-04-11T09:39:43.315Z,7.22
2018-04-11T09:40:47.291Z,5.72
2018-04-11T09:41:50.573Z,5.80
2018-04-11T09:42:53.730Z,5.35
2018-04-11T09:43:56.955Z,7.10
2018-04-11T09:45:00.962Z,6.82
2018-04-11T09:46:04.953Z,7.03
2018-04-11T09:47:08.925Z,6.80
2018-04-11T09:48:12.115Z,6.25
2018-04-11T09:49:16.170Z,6.35
2018-04-11T09:50:19.456Z,6.25
2018-04-11T09:51:22.788Z,5.90
2018-04-11T09:52:25.987Z,5.40
2018-04-11T09:53:29.958Z,5.37
2018-04-11T09:54:33.300Z,5.80
2018-04-11T09:55:36.503Z,4.95
2018-04-11T09:56:39.715Z,4.70
2018-04-11T09:57:42.938Z,4.75
2018-04-11T09:58:46.140Z,5.00
2018-04-11T09:59:49.365Z,4.45
2018-04-11T10:00:53.386Z,4.50
2018-04-11T10:01:57.374Z,4.50
2018-04-11T10:03:07.438Z,5.15
2018-04-11T10:04:11.411Z,5.43
2018-04-11T10:05:14.630Z,6.35
2018-04-11T10:06:18.619Z,6.30
2018-04-11T10:07:22.644Z,5.90
2018-04-11T10:08:25.881Z,5.53
2018-04-11T10:09:29.243Z,4.95
2018-04-11T10:10:32.485Z,5.12
2018-04-11T10:11:35.722Z,4.85
2018-04-11T10:12:38.942Z,5.15
2018-04-11T10:13:42.949Z,4.75
2018-04-11T10:14:46.152Z,4.72
2018-04-11T10:15:49.369Z,5.43
2018-04-11T10:16:52.589Z,5.40
2018-04-11T10:17:56.570Z,5.75
2018-04-11T10:19:00.577Z,5.40
2018-04-11T10:20:03.881Z,6.62
2018-04-11T10:21:07.103Z,4.90
2018-04-11T10:22:10.312Z,5.70
2018-04-11T10:23:13.555Z,5.30
2018-04-11T10:24:16.780Z,5.70
2018-04-11T10:25:20.001Z,5.75
2018-04-11T10:26:23.247Z,5.90
2018-04-11T10:27:26.428Z,6.82
2018-04-11T10:28:29.688Z,6.45
2018-04-11T10:29:32.912Z,6.70
2018-04-11T10:30:36.921Z,6.20
2018-04-11T10:31:40.916Z,6.62
2018-04-11T10:32:44.949Z,5.85
2018-04-11T10:33:48.169Z,5.28
2018-04-11T10:34:51.399Z,7.12
2018-04-11T10:35:55.365Z,7.15
2018-04-11T10:36:58.607Z,6.60
2018-04-11T10:38:01.824Z,7.15
2018-04-11T10:39:05.043Z,6.93
2018-04-11T10:40:08.378Z,7.20
2018-04-11T10:41:11.594Z,6.72
2018-04-11T10:42:15.606Z,5.93
2018-04-11T10:43:18.779Z,7.07
2018-04-11T10:44:22.766Z,6.97
2018-04-11T10:45:26.824Z,6.80
2018-04-11T10:46:30.038Z,7.07
2018-04-11T10:47:33.257Z,7.30
2018-04-11T10:48:37.235Z,7.03
2018-04-11T10:49:41.266Z,7.70
2018-04-11T10:50:44.469Z,7.43
2018-04-11T10:51:47.717Z,6.72
2018-04-11T10:52:51.719Z,7.50
2018-04-11T10:53:54.910Z,6.95
2018-04-11T10:54:58.146Z,7.50
2018-04-11T10:56:01.379Z,6.87
2018-04-11T10:57:04.651Z,7.62
2018-04-11T10:58:08.639Z,6.93
2018-04-11T10:59:11.851Z,6.82
2018-04-11T11:00:15.323Z,6.50
2018-04-11T11:01:19.296Z,6.07
2018-04-11T11:02:22.627Z,5.90
2018-04-11T11:03:25.948Z,6.50
2018-04-11T11:04:29.135Z,6.12
2018-04-11T11:05:32.470Z,7.07
2018-04-11T11:06:35.676Z,6.03
2018-04-11T11:07:38.987Z,7.68
2018-04-11T11:08:43.013Z,7.12
2018-04-11T11:09:46.224Z,6.78
2018-04-11T11:10:49.444Z,6.50
2018-04-11T11:11:52.687Z,7.20
2018-04-11T11:12:55.910Z,7.00
2018-04-11T11:13:59.118Z,6.40
2018-04-11T11:15:02.351Z,6.85
2018-04-11T11:16:05.548Z,7.90
2018-04-11T11:17:08.762Z,6.60
2018-04-11T11:18:11.960Z,6.40
2018-04-11T11:19:15.957Z,6.50
2018-04-11T11:20:19.928Z,6.45
2018-04-11T11:21:23.195Z,6.43
2018-04-11T11:22:26.421Z,6.70
2018-04-11T11:23:30.383Z,6.20
2018-04-11T11:24:33.613Z,5.65
2018-04-11T11:25:37.585Z,5.68
2018-04-11T11:26:40.791Z,5.50
2018-04-11T11:27:44.771Z,5.37
2018-04-11T11:28:47.977Z,5.82
2018-04-11T11:29:51.977Z,5.93
2018-04-11T11:30:55.980Z,4.90
2018-04-11T11:31:59.945Z,5.20
2018-04-11T11:33:03.265Z,4.82
2018-04-11T11:34:07.257Z,5.05
2018-04-11T11:35:11.240Z,5.82
2018-04-11T11:36:14.460Z,5.10
2018-04-11T11:37:18.447Z,5.55
2018-04-11T11:38:22.438Z,5.62
2018-04-11T11:39:25.640Z,5.00
2018-04-11T11:40:28.869Z,5.35
2018-04-11T11:41:32.103Z,5.47
2018-04-11T11:42:36.087Z,4.65
2018-04-11T11:43:40.080Z,4.22
2018-04-11T11:44:43.388Z,4.50
2018-04-11T11:45:47.397Z,4.75
2018-04-11T11:46:51.371Z,4.65
2018-04-11T11:47:55.388Z,4.35
2018-04-11T11:48:59.369Z,5.10
2018-04-11T11:50:03.447Z,4.45
2018-04-11T11:51:06.625Z,4.55
2018-04-11T11:52:09.889Z,4.35
2018-04-11T11:53:13.805Z,4.62
2018-04-11T11:54:17.027Z,4.05
2018-04-11T11:55:20.254Z,4.10
2018-04-11T11:56:23.506Z,4.68
2018-04-11T11:57:27.499Z,4.47
2018-04-11T11:58:31.463Z,4.55
2018-04-11T11:59:36.177Z,5.12
2018-04-11T12:00:39.518Z,4.97
2018-04-11T12:01:42.775Z,4.93
2018-04-11T12:02:46.755Z,4.47
2018-04-11T12:03:50.079Z,4.30
2018-04-11T12:04:54.057Z,4.85
2018-04-11T12:05:57.280Z,5.22
2018-04-11T12:07:00.481Z,5.53
2018-04-11T12:08:03.711Z,3.97
2018-04-11T12:09:07.720Z,4.55
2018-04-11T12:10:11.709Z,6.05
2018-04-11T12:11:15.679Z,4.40
2018-04-11T12:12:18.917Z,4.90
2018-04-11T12:13:22.130Z,4.22
2018-04-11T12:14:25.355Z,4.62
2018-04-11T12:15:28.667Z,4.00
2018-04-11T12:16:31.874Z,4.57
2018-04-11T12:17:35.098Z,4.15
2018-04-11T12:18:38.402Z,4.65
2018-04-11T12:19:42.427Z,3.55
2018-04-11T12:20:45.678Z,4.20
2018-04-11T12:21:49.659Z,3.67
2018-04-11T12:22:52.873Z,4.40
2018-04-11T12:23:56.878Z,4.10
2018-04-11T12:25:00.159Z,4.20
2018-04-11T12:26:04.153Z,4.57
2018-04-11T12:27:08.137Z,3.80
2018-04-11T12:28:11.345Z,3.37
2018-04-11T12:29:14.565Z,4.70
2018-04-11T12:30:17.811Z,4.35
2018-04-11T12:31:21.783Z,3.50
2018-04-11T12:32:24.995Z,4.37
2018-04-11T12:33:28.280Z,4.10
2018-04-11T12:34:31.505Z,4.28
2018-04-11T12:35:34.792Z,3.75
2018-04-11T12:36:37.974Z,3.72
2018-04-11T12:37:41.186Z,4.75
2018-04-11T12:38:45.262Z,4.07
2018-04-11T12:39:48.475Z,4.95
2018-04-11T12:40:52.471Z,4.97
2018-04-11T12:41:56.442Z,4.78
2018-04-11T12:42:59.654Z,4.40
2018-04-11T12:44:02.859Z,4.05
2018-04-11T12:45:06.068Z,4.35
2018-04-11T12:46:09.298Z,4.87
2018-04-11T12:47:12.509Z,4.37
2018-04-11T12:48:15.779Z,4.07
2018-04-11T12:49:19.768Z,4.20
2018-04-11T12:50:23.766Z,4.85
2018-04-11T12:51:27.758Z,3.55
2018-04-11T12:52:30.967Z,3.45
2018-04-11T12:53:34.964Z,3.90
2018-04-11T12:54:38.956Z,3.90
2018-04-11T12:55:42.229Z,4.05
2018-04-11T12:56:45.393Z,4.45
2018-04-11T12:57:48.623Z,3.97
2018-04-11T12:58:52.598Z,4.43
2018-04-11T12:59:56.618Z,3.83
2018-04-11T13:00:59.997Z,3.90
2018-04-11T13:02:03.890Z,4.65
2018-04-11T13:03:07.864Z,4.32
2018-04-11T13:04:11.189Z,4.55
2018-04-11T13:05:15.183Z,4.00
2018-04-11T13:06:19.169Z,3.47
2018-04-11T13:07:22.370Z,4.25
2018-04-11T13:08:25.649Z,3.72
2018-04-11T13:09:29.640Z,3.70
2018-04-11T13:10:33.609Z,3.40
2018-04-11T13:11:36.840Z,4.32
2018-04-11T13:12:40.824Z,4.45
2018-04-11T13:13:44.816Z,4.78
2018-04-11T13:14:48.026Z,5.10
2018-04-11T13:15:51.992Z,5.37
2018-04-11T13:18:04.882Z,5.15
2018-04-11T13:19:08.181Z,4.93
2018-04-11T13:20:11.372Z,3.75
2018-04-11T13:21:14.592Z,4.30
2018-04-11T13:22:17.807Z,4.28
2018-04-11T13:23:21.083Z,4.00
2018-04-11T13:24:24.320Z,4.00
2018-04-11T13:25:27.571Z,4.18
2018-04-11T13:26:30.778Z,4.60
2018-04-11T13:27:33.999Z,4.40
2018-04-11T13:28:37.234Z,4.70
2018-04-11T13:29:40.444Z,5.20
2018-04-11T13:30:44.482Z,4.47
2018-04-11T13:31:47.695Z,4.50
2018-04-11T13:32:51.007Z,4.53
2018-04-11T13:33:54.995Z,4.00
2018-04-11T13:34:58.219Z,5.18
2018-04-11T13:36:01.475Z,3.97
2018-04-11T13:37:05.468Z,4.22
2018-04-11T13:38:09.850Z,5.15
2018-04-11T13:39:13.090Z,4.70
2018-04-11T13:40:16.312Z,4.68
2018-04-11T13:41:19.538Z,4.28
2018-04-11T13:42:23.502Z,3.90
2018-04-11T13:43:26.718Z,4.15
2018-04-11T13:44:30.715Z,6.35
2018-04-11T13:45:34.691Z,4.80
2018-04-11T13:46:37.910Z,4.70
2018-04-11T13:47:41.123Z,3.70
2018-04-11T13:48:44.427Z,3.35
2018-04-11T13:49:47.646Z,3.28
2018-04-11T13:50:51.627Z,2.97
2018-04-11T13:51:54.939Z,3.35
2018-04-11T13:52:58.155Z,4.00
2018-04-11T13:54:01.386Z,3.70